Time;durP1;ratioP1;P1;durP2;ratioP2;P2;SDS_P1;SDS_P2;PMS_P1;PMS_P2;Temp;Humidity;BMP_temperature;BMP_pressure;BME280_temperature;BME280_humidity;BME280_pressure;Samples;Min_cycle;Max_cycle;Signal;HPM_P1;HPM_P2
2021/06/04 00:00:23;;;;;;;5.97;5.50;;;17.50;99.90;;;;;;5054558;28;20434;-88
2021/06/04 00:02:50;;;;;;;4.33;4.00;;;17.50;99.90;;;;;;5054348;28;20430;-88
2021/06/04 00:05:19;;;;;;;4.43;4.13;;;17.50;99.90;;;;;;5054363;28;20430;-85
2021/06/04 00:07:45;;;;;;;4.40;4.10;;;17.40;99.90;;;;;;5054348;28;20441;-85
2021/06/04 00:10:16;;;;;;;4.53;4.23;;;17.40;99.90;;;;;;5054155;28;20434;-87
2021/06/04 00:12:43;;;;;;;4.37;4.07;;;17.40;99.90;;;;;;5054421;28;20437;-86
2021/06/04 00:15:12;;;;;;;4.17;3.77;;;17.40;99.90;;;;;;5055169;28;20450;-86
2021/06/04 00:17:40;;;;;;;4.67;4.30;;;17.40;99.90;;;;;;5054391;28;20430;-86
2021/06/04 00:20:09;;;;;;;4.07;3.77;;;17.40;99.90;;;;;;5054403;28;20450;-86
2021/06/04 00:22:36;;;;;;;4.53;4.20;;;17.30;99.90;;;;;;5053953;28;21011;-87
2021/06/04 00:25:03;;;;;;;4.00;3.70;;;17.30;99.90;;;;;;5054102;28;20963;-86
2021/06/04 00:27:29;;;;;;;4.20;3.87;;;17.30;99.90;;;;;;5054335;28;20452;-87
2021/06/04 00:29:56;;;;;;;7.43;4.50;;;17.30;99.90;;;;;;5054440;28;20457;-87
2021/06/04 00:32:22;;;;;;;3.90;3.60;;;17.30;99.90;;;;;;5054181;28;20462;-87
2021/06/04 00:34:51;;;;;;;4.13;3.80;;;17.20;99.90;;;;;;5054308;28;20445;-86
2021/06/04 00:37:18;;;;;;;4.90;4.10;;;17.20;99.90;;;;;;5053793;28;20489;-86
2021/06/04 00:39:45;;;;;;;3.67;3.37;;;17.20;99.90;;;;;;5054159;28;20445;-86
2021/06/04 00:42:17;;;;;;;5.93;3.60;;;17.20;99.90;;;;;;5054220;28;20492;-88
2021/06/04 00:44:44;;;;;;;3.83;3.53;;;17.10;99.90;;;;;;5056584;28;20434;-86
2021/06/04 00:47:11;;;;;;;4.27;3.97;;;17.10;99.90;;;;;;5057865;28;20929;-87
2021/06/04 00:49:37;;;;;;;4.30;4.00;;;17.10;99.90;;;;;;5058406;28;20495;-86
2021/06/04 00:52:09;;;;;;;4.60;4.20;;;17.10;99.90;;;;;;5058622;28;20475;-86
2021/06/04 00:54:35;;;;;;;4.50;4.20;;;17.10;99.90;;;;;;5058450;28;20410;-87
2021/06/04 00:57:03;;;;;;;4.27;3.97;;;17.10;99.90;;;;;;5058595;28;20571;-87
2021/06/04 00:59:37;;;;;;;4.67;4.27;;;17.00;99.90;;;;;;5058925;28;20449;-87
2021/06/04 01:02:04;;;;;;;4.50;3.60;;;17.00;99.90;;;;;;5058027;28;20485;-86
2021/06/04 01:04:32;;;;;;;4.93;4.53;;;17.00;99.90;;;;;;5057592;28;20452;-86
2021/06/04 01:07:04;;;;;;;5.43;4.57;;;17.00;99.90;;;;;;5057646;28;20440;-86
2021/06/04 01:09:45;;;;;;;4.40;4.07;;;17.00;99.90;;;;;;5057494;28;20417;-86
2021/06/04 01:12:25;;;;;;;4.13;3.83;;;17.00;99.90;;;;;;5057632;28;20496;-86
2021/06/04 01:15:00;;;;;;;4.60;4.30;;;17.00;99.90;;;;;;5057577;28;20437;-86
2021/06/04 01:17:31;;;;;;;4.07;3.77;;;17.00;99.90;;;;;;5057823;28;20792;-86
2021/06/04 01:20:05;;;;;;;4.43;4.13;;;17.00;99.90;;;;;;5057638;28;20418;-86
2021/06/04 01:23:01;;;;;;;4.67;4.33;;;16.90;99.90;;;;;;5057100;28;20477;-86
2021/06/04 01:25:40;;;;;;;3.90;3.63;;;16.90;99.90;;;;;;5051945;28;20461;-86
2021/06/04 01:28:12;;;;;;;4.93;4.43;;;16.90;99.90;;;;;;5057487;28;20885;-85
2021/06/04 01:30:42;;;;;;;5.60;5.20;;;16.90;99.90;;;;;;5057302;28;20473;-86
2021/06/04 01:33:13;;;;;;;4.30;4.00;;;16.80;99.90;;;;;;5057132;28;20495;-85
2021/06/04 01:35:42;;;;;;;4.40;4.07;;;16.80;99.90;;;;;;5057063;28;20902;-85
2021/06/04 01:38:10;;;;;;;4.93;4.50;;;16.80;99.90;;;;;;5056857;28;20980;-86
2021/06/04 01:40:41;;;;;;;4.77;4.37;;;16.80;99.90;;;;;;5056616;28;20969;-86
2021/06/04 01:43:12;;;;;;;4.07;3.77;;;16.80;99.90;;;;;;5057251;28;20442;-85
2021/06/04 01:45:42;;;;;;;4.90;4.50;;;16.80;99.90;;;;;;5056937;28;20418;-85
2021/06/04 01:48:12;;;;;;;4.53;4.13;;;16.80;99.90;;;;;;5057343;28;20434;-86
2021/06/04 01:50:41;;;;;;;5.03;4.23;;;16.80;99.90;;;;;;5056926;28;20520;-85
2021/06/04 01:53:12;;;;;;;5.13;4.73;;;16.80;99.90;;;;;;5056987;28;20453;-86
2021/06/04 01:55:44;;;;;;;5.07;4.57;;;16.80;99.90;;;;;;5056599;28;20434;-86
2021/06/04 01:58:14;;;;;;;5.90;5.03;;;16.70;99.90;;;;;;5056665;28;20445;-85
2021/06/04 02:00:44;;;;;;;5.13;4.73;;;16.70;99.90;;;;;;5056851;28;20465;-86
2021/06/04 02:03:12;;;;;;;5.03;4.63;;;16.70;99.90;;;;;;5056908;28;20458;-86
2021/06/04 02:05:40;;;;;;;6.60;4.23;;;16.70;99.90;;;;;;5056679;28;20426;-86
2021/06/04 02:08:10;;;;;;;5.17;4.77;;;16.80;99.90;;;;;;5057651;28;20454;-86
2021/06/04 02:10:41;;;;;;;5.10;4.70;;;16.70;99.90;;;;;;5056378;28;20957;-86
2021/06/04 02:13:09;;;;;;;5.80;5.23;;;16.80;99.90;;;;;;5056592;28;20433;-86
2021/06/04 02:15:40;;;;;;;5.00;4.57;;;16.80;99.90;;;;;;5056750;28;20860;-85
2021/06/04 02:18:13;;;;;;;4.57;4.27;;;16.80;99.90;;;;;;5056854;28;20936;-85
2021/06/04 02:20:43;;;;;;;5.60;5.10;;;16.80;99.90;;;;;;5056656;28;20473;-86
2021/06/04 02:23:19;;;;;;;4.83;4.43;;;16.70;99.90;;;;;;5056231;28;20945;-86
2021/06/04 02:25:53;;;;;;;4.53;4.30;;;16.70;99.90;;;;;;5056241;28;20430;-86
2021/06/04 02:28:26;;;;;;;4.37;4.07;;;16.70;99.90;;;;;;5057376;28;20442;-86
2021/06/04 02:31:02;;;;;;;4.53;4.23;;;16.70;99.90;;;;;;5056156;28;20470;-86
2021/06/04 02:33:34;;;;;;;5.20;4.80;;;16.70;99.90;;;;;;5056167;28;20426;-86
2021/06/04 02:36:03;;;;;;;4.77;4.40;;;16.70;99.90;;;;;;5055892;28;20430;-86
2021/06/04 02:38:34;;;;;;;5.20;4.77;;;16.70;99.90;;;;;;5055724;28;20477;-87
2021/06/04 02:41:07;;;;;;;5.93;5.43;;;16.70;99.90;;;;;;5055760;28;20458;-86
2021/06/04 02:43:38;;;;;;;5.40;5.00;;;16.70;99.90;;;;;;5055974;28;20434;-86
2021/06/04 02:46:11;;;;;;;5.43;4.93;;;16.80;99.90;;;;;;5056139;28;20421;-86
2021/06/04 02:48:38;;;;;;;5.57;5.10;;;16.80;99.90;;;;;;5056521;28;20434;-86
2021/06/04 02:51:09;;;;;;;5.70;5.20;;;16.80;99.90;;;;;;5055791;28;20466;-86
2021/06/04 02:53:40;;;;;;;5.70;5.13;;;16.80;99.90;;;;;;5056653;28;20433;-86
2021/06/04 02:56:17;;;;;;;5.17;4.73;;;16.90;99.90;;;;;;5055580;28;20470;-86
2021/06/04 02:58:45;;;;;;;5.07;4.67;;;16.90;99.90;;;;;;5055755;28;20928;-86
2021/06/04 03:01:12;;;;;;;5.07;4.77;;;16.90;99.90;;;;;;5055297;28;20477;-86
2021/06/04 03:03:41;;;;;;;5.80;5.30;;;16.90;99.90;;;;;;5055603;28;20450;-86
2021/06/04 03:06:08;;;;;;;5.43;5.03;;;16.90;99.90;;;;;;5055190;28;20450;-85
2021/06/04 03:08:35;;;;;;;6.47;5.33;;;16.90;99.90;;;;;;5055238;28;20453;-85
2021/06/04 03:11:04;;;;;;;5.20;4.80;;;16.90;99.90;;;;;;5055463;28;20923;-85
2021/06/04 03:13:34;;;;;;;5.00;4.60;;;16.90;99.90;;;;;;5055558;28;20445;-85
2021/06/04 03:16:04;;;;;;;5.07;4.30;;;16.90;99.90;;;;;;5055485;28;20456;-86
2021/06/04 03:18:33;;;;;;;4.53;4.20;;;16.90;99.90;;;;;;5055301;28;20862;-86
2021/06/04 03:21:04;;;;;;;6.90;5.40;;;16.90;99.90;;;;;;5055034;28;20473;-86
2021/06/04 03:23:36;;;;;;;5.33;4.83;;;16.90;99.90;;;;;;5055775;28;20886;-85
2021/06/04 03:26:06;;;;;;;4.80;4.40;;;16.90;99.90;;;;;;5055238;28;20822;-86
2021/06/04 03:28:37;;;;;;;5.07;4.63;;;16.90;99.90;;;;;;5055146;28;20897;-86
2021/06/04 03:31:07;;;;;;;5.60;5.00;;;17.00;99.90;;;;;;5055068;28;20473;-86
2021/06/04 03:33:36;;;;;;;5.33;4.83;;;17.00;99.90;;;;;;5055029;28;20445;-86
2021/06/04 03:36:05;;;;;;;6.23;5.63;;;17.00;99.90;;;;;;5054983;28;20567;-87
2021/06/04 03:38:32;;;;;;;5.77;5.23;;;17.00;99.90;;;;;;5054503;28;20493;-86
2021/06/04 03:40:59;;;;;;;5.90;5.50;;;17.10;99.90;;;;;;5054612;28;20457;-86
2021/06/04 03:43:27;;;;;;;6.60;5.90;;;17.00;99.90;;;;;;5054932;28;20446;-85
2021/06/04 03:45:56;;;;;;;6.73;6.03;;;17.10;99.90;;;;;;5055243;28;20504;-87
2021/06/04 03:48:25;;;;;;;7.13;6.43;;;17.10;99.90;;;;;;5054663;28;20430;-86
2021/06/04 03:50:53;;;;;;;7.10;6.50;;;17.10;99.90;;;;;;5054663;28;20469;-86
2021/06/04 03:53:21;;;;;;;5.87;5.37;;;17.10;99.90;;;;;;5054746;28;20445;-86
2021/06/04 03:55:47;;;;;;;6.97;6.37;;;17.20;99.90;;;;;;5054684;28;20805;-86
2021/06/04 03:58:15;;;;;;;6.53;5.93;;;17.20;99.90;;;;;;5054641;28;20511;-86
2021/06/04 04:00:44;;;;;;;7.50;6.80;;;17.20;99.90;;;;;;5054242;28;20961;-86
2021/06/04 04:03:14;;;;;;;6.80;6.20;;;17.20;99.90;;;;;;5054297;28;20469;-86
2021/06/04 04:05:41;;;;;;;7.50;6.80;;;17.10;99.90;;;;;;5054454;28;20441;-86
2021/06/04 04:08:09;;;;;;;6.80;6.20;;;17.10;99.90;;;;;;5054445;28;20516;-86
2021/06/04 04:10:36;;;;;;;5.93;5.37;;;17.10;99.90;;;;;;5054844;28;20523;-87
2021/06/04 04:13:03;;;;;;;6.37;5.77;;;17.20;99.90;;;;;;5054553;28;20492;-86
2021/06/04 04:15:30;;;;;;;6.80;6.20;;;17.20;99.90;;;;;;5054669;28;20533;-86
2021/06/04 04:17:59;;;;;;;7.60;6.80;;;17.20;99.90;;;;;;5054360;28;20457;-86
2021/06/04 04:20:29;;;;;;;8.27;6.53;;;17.30;99.90;;;;;;5054058;28;20977;-86
2021/06/04 04:22:57;;;;;;;7.20;6.50;;;17.40;99.90;;;;;;5054951;28;20474;-87
2021/06/04 04:25:25;;;;;;;7.97;7.10;;;17.40;99.90;;;;;;5054112;28;20430;-87
2021/06/04 04:27:51;;;;;;;6.83;6.23;;;17.50;99.90;;;;;;5054110;28;20995;-85
2021/06/04 04:30:19;;;;;;;8.13;7.43;;;17.50;99.90;;;;;;5054262;28;20814;-85
2021/06/04 04:32:46;;;;;;;7.60;6.90;;;17.60;99.90;;;;;;5054431;28;20452;-85
2021/06/04 04:35:15;;;;;;;9.03;8.13;;;17.60;99.90;;;;;;5054119;28;20944;-86
2021/06/04 04:37:43;;;;;;;8.20;6.50;;;17.50;99.90;;;;;;5054273;28;20489;-85
2021/06/04 04:40:11;;;;;;;7.43;6.83;;;17.60;99.90;;;;;;5054412;28;20452;-87
2021/06/04 04:42:38;;;;;;;7.43;6.60;;;17.50;99.90;;;;;;5054404;28;20841;-86
2021/06/04 04:45:06;;;;;;;7.73;7.03;;;17.60;99.90;;;;;;5054282;28;20458;-84
2021/06/04 04:47:32;;;;;;;7.30;6.60;;;17.60;99.90;;;;;;5054018;28;20496;-85
2021/06/04 04:49:59;;;;;;;6.60;6.00;;;17.60;99.90;;;;;;5054204;28;20503;-86
2021/06/04 04:52:25;;;;;;;7.67;6.73;;;17.60;99.90;;;;;;5054193;28;20965;-85
2021/06/04 04:54:56;;;;;;;6.27;5.77;;;17.60;99.90;;;;;;5054271;28;20450;-83
2021/06/04 04:57:24;;;;;;;6.27;5.77;;;17.70;99.90;;;;;;5054372;28;20464;-86
2021/06/04 04:59:51;;;;;;;5.90;5.40;;;17.70;99.90;;;;;;5054319;28;20445;-86
2021/06/04 05:02:17;;;;;;;7.60;6.57;;;17.70;99.90;;;;;;5053851;28;20988;-85
2021/06/04 05:04:44;;;;;;;6.30;5.80;;;17.80;99.90;;;;;;5054241;28;20437;-85
2021/06/04 05:07:10;;;;;;;6.97;6.37;;;17.80;99.90;;;;;;5053806;28;20442;-86
2021/06/04 05:09:37;;;;;;;6.47;5.97;;;17.80;99.90;;;;;;5053777;28;20430;-86
2021/06/04 05:12:06;;;;;;;6.90;6.30;;;17.80;99.90;;;;;;5053527;28;20462;-86
2021/06/04 05:14:32;;;;;;;6.90;6.30;;;17.90;99.90;;;;;;5053925;28;20788;-86
2021/06/04 05:17:00;;;;;;;6.73;6.13;;;17.90;99.90;;;;;;5053713;28;20430;-85
2021/06/04 05:19:27;;;;;;;6.27;5.77;;;17.90;99.90;;;;;;5053831;28;20450;-86
2021/06/04 05:21:53;;;;;;;6.30;5.83;;;18.00;99.90;;;;;;5053358;28;20488;-86
2021/06/04 05:24:20;;;;;;;6.87;6.17;;;18.10;99.90;;;;;;5053888;28;20442;-86
2021/06/04 05:26:46;;;;;;;6.20;5.67;;;18.20;99.90;;;;;;5053568;28;20811;-86
2021/06/04 05:29:14;;;;;;;5.77;5.17;;;18.30;99.90;;;;;;5053839;28;20437;-85
2021/06/04 05:31:40;;;;;;;5.60;5.10;;;18.50;99.90;;;;;;5057166;28;20473;-85
2021/06/04 05:34:08;;;;;;;5.80;5.10;;;18.60;99.90;;;;;;5057031;28;20540;-85
2021/06/04 05:36:37;;;;;;;5.53;5.03;;;18.70;99.90;;;;;;5057183;28;20450;-85
2021/06/04 05:39:09;;;;;;;5.47;5.00;;;18.90;99.90;;;;;;5056834;28;20911;-86
2021/06/04 05:41:36;;;;;;;4.63;4.33;;;19.20;99.90;;;;;;5056890;28;20973;-86
2021/06/04 05:44:03;;;;;;;4.60;4.20;;;19.40;99.90;;;;;;5057021;28;20434;-85
2021/06/04 05:46:30;;;;;;;3.83;3.63;;;19.70;99.90;;;;;;5056705;28;20934;-86
2021/06/04 05:48:57;;;;;;;3.43;3.23;;;19.90;99.90;;;;;;5056947;28;20448;-85
2021/06/04 05:51:27;;;;;;;3.80;3.40;;;20.10;99.90;;;;;;5056992;28;20462;-86
2021/06/04 05:53:54;;;;;;;3.80;3.17;;;20.30;99.90;;;;;;5056741;28;20445;-85
2021/06/04 05:56:22;;;;;;;3.30;3.10;;;20.50;99.90;;;;;;5056854;28;20462;-85
2021/06/04 05:58:50;;;;;;;3.57;3.37;;;20.60;99.90;;;;;;5056922;28;20433;-86
2021/06/04 06:01:18;;;;;;;3.77;3.57;;;20.60;99.90;;;;;;5057126;28;20469;-85
2021/06/04 06:03:46;;;;;;;2.90;2.70;;;20.70;99.90;;;;;;5056877;28;20440;-85
2021/06/04 06:06:13;;;;;;;3.60;3.30;;;20.70;99.90;;;;;;5056484;28;20929;-85
2021/06/04 06:08:40;;;;;;;3.73;3.53;;;20.60;99.90;;;;;;5056931;28;20456;-86
2021/06/04 06:11:08;;;;;;;3.23;3.03;;;20.60;99.90;;;;;;5056292;28;20515;-85
2021/06/04 06:13:35;;;;;;;4.73;3.73;;;20.50;99.90;;;;;;5056509;28;20468;-86
2021/06/04 06:16:02;;;;;;;4.00;3.80;;;20.50;99.90;;;;;;5056452;28;20446;-85
2021/06/04 06:18:29;;;;;;;3.33;3.13;;;20.40;99.90;;;;;;5056472;28;20453;-85
2021/06/04 06:20:58;;;;;;;3.70;3.40;;;20.40;99.90;;;;;;5056388;28;20465;-86
2021/06/04 06:23:29;;;;;;;3.30;3.10;;;20.40;99.90;;;;;;5056325;28;21015;-85
2021/06/04 06:25:58;;;;;;;3.43;3.17;;;20.40;99.90;;;;;;5056461;28;20434;-85
2021/06/04 06:28:27;;;;;;;3.63;3.33;;;20.40;99.90;;;;;;5056410;28;20913;-85
2021/06/04 06:30:55;;;;;;;3.93;3.63;;;20.40;99.90;;;;;;5056136;28;20548;-85
2021/06/04 06:33:21;;;;;;;3.47;3.27;;;20.40;99.90;;;;;;5056252;28;20495;-85
2021/06/04 06:35:51;;;;;;;3.77;3.57;;;20.40;99.90;;;;;;5055937;28;20444;-85
2021/06/04 06:38:19;;;;;;;5.77;3.60;;;20.40;99.90;;;;;;5055798;28;20478;-85
2021/06/04 06:40:47;;;;;;;3.60;3.30;;;20.30;99.90;;;;;;5055322;28;20480;-86
2021/06/04 06:43:15;;;;;;;4.50;4.10;;;20.30;99.90;;;;;;5054940;28;20481;-85
2021/06/04 06:45:42;;;;;;;3.73;3.43;;;20.30;99.90;;;;;;5056569;28;20518;-85
2021/06/04 06:48:09;;;;;;;4.80;4.40;;;20.30;99.90;;;;;;5055951;28;20929;-86
2021/06/04 06:50:37;;;;;;;4.40;3.97;;;20.30;99.90;;;;;;5055846;28;20472;-85
2021/06/04 06:53:06;;;;;;;4.00;3.70;;;20.40;99.90;;;;;;5055719;28;20968;-85
2021/06/04 06:55:34;;;;;;;4.07;3.60;;;20.50;99.90;;;;;;5055892;28;20509;-85
2021/06/04 06:58:01;;;;;;;3.33;3.13;;;20.70;99.90;;;;;;5055781;28;20449;-86
2021/06/04 07:00:30;;;;;;;3.17;2.97;;;21.00;99.90;;;;;;5055379;28;20434;-86
2021/06/04 07:02:56;;;;;;;3.10;2.80;;;21.30;99.90;;;;;;5055355;28;21010;-85
2021/06/04 07:05:23;;;;;;;2.63;2.53;;;21.90;99.90;;;;;;5055316;28;20956;-84
2021/06/04 07:07:50;;;;;;;2.60;2.40;;;22.70;99.90;;;;;;5055216;28;20497;-85
2021/06/04 07:10:20;;;;;;;2.65;2.42;;;23.40;99.90;;;;;;5055223;28;20194;-85
2021/06/04 07:12:48;;;;;;;2.00;1.90;;;24.20;99.90;;;;;;5055702;28;20205;-85
2021/06/04 07:15:17;;;;;;;2.50;2.40;;;25.10;99.90;;;;;;5055418;28;20249;-85
2021/06/04 07:17:44;;;;;;;2.20;2.10;;;26.00;99.90;;;;;;5055223;28;20206;-85
2021/06/04 07:20:13;;;;;;;2.78;2.58;;;26.80;99.90;;;;;;5055024;28;20196;-86
2021/06/04 07:22:40;;;;;;;2.33;2.13;;;27.50;99.90;;;;;;5054905;28;20213;-85
2021/06/04 07:25:10;;;;;;;1.73;1.63;;;28.10;99.90;;;;;;5055392;28;20206;-86
2021/06/04 07:27:38;;;;;;;2.20;2.10;;;29.00;97.80;;;;;;5055861;28;20239;-86
2021/06/04 07:30:10;;;;;;;2.15;2.05;;;30.20;94.30;;;;;;5054766;28;20182;-86
2021/06/04 07:32:36;;;;;;;1.73;1.70;;;31.70;89.80;;;;;;5055299;28;20218;-86
2021/06/04 07:35:04;;;;;;;2.22;1.85;;;33.10;80.30;;;;;;5054647;28;20221;-86
2021/06/04 07:37:30;;;;;;;2.10;2.00;;;34.40;69.40;;;;;;5054390;28;20777;-86
2021/06/04 07:39:56;;;;;;;2.10;2.00;;;35.30;62.90;;;;;;5054223;28;20294;-86
2021/06/04 07:42:23;;;;;;;1.95;1.90;;;36.10;57.90;;;;;;5053956;28;20229;-86
2021/06/04 07:44:49;;;;;;;3.28;2.10;;;36.70;55.80;;;;;;5054095;28;20640;-86
2021/06/04 07:47:17;;;;;;;2.13;1.60;;;37.00;54.90;;;;;;5054380;28;20199;-86
2021/06/04 07:49:43;;;;;;;2.17;1.45;;;37.10;51.20;;;;;;5054742;28;20286;-86
2021/06/04 07:52:10;;;;;;;1.95;1.85;;;37.20;49.50;;;;;;5053972;28;20738;-86
2021/06/04 07:54:36;;;;;;;1.83;1.42;;;36.90;51.20;;;;;;5053998;28;20290;-86
2021/06/04 07:57:05;;;;;;;2.17;2.00;;;37.40;50.00;;;;;;5054012;28;20207;-86
2021/06/04 07:59:32;;;;;;;3.00;1.85;;;37.90;49.70;;;;;;5054137;28;20205;-86
2021/06/04 08:01:58;;;;;;;1.70;1.70;;;38.60;48.80;;;;;;5053896;28;20234;-86
2021/06/04 08:04:26;;;;;;;1.80;1.67;;;39.40;47.40;;;;;;5054318;28;20569;-86
2021/06/04 08:06:52;;;;;;;1.80;1.75;;;40.10;44.30;;;;;;5053812;28;20542;-86
2021/06/04 08:09:19;;;;;;;1.80;1.70;;;40.50;43.00;;;;;;5054023;28;20191;-86
2021/06/04 08:11:48;;;;;;;2.00;1.60;;;40.40;41.50;;;;;;5053757;28;20714;-86
2021/06/04 08:14:17;;;;;;;1.90;1.80;;;40.70;41.50;;;;;;5053641;28;20203;-86
2021/06/04 08:16:45;;;;;;;1.80;1.48;;;40.70;40.30;;;;;;5053727;28;20203;-86
2021/06/04 08:19:12;;;;;;;3.47;2.67;;;40.60;40.00;;;;;;5053669;28;20210;-86
2021/06/04 08:21:42;;;;;;;1.75;1.65;;;40.60;40.40;;;;;;5053395;28;20245;-86
2021/06/04 08:24:11;;;;;;;2.08;1.90;;;40.50;39.80;;;;;;5054142;28;20628;-87
2021/06/04 08:26:40;;;;;;;1.55;1.55;;;40.50;39.70;;;;;;5053785;28;20569;-86
2021/06/04 08:29:07;;;;;;;1.75;1.65;;;40.50;40.30;;;;;;5053950;28;20187;-86
2021/06/04 08:31:34;;;;;;;2.42;2.33;;;40.70;39.80;;;;;;5053639;28;20721;-86
2021/06/04 08:34:01;;;;;;;2.13;2.03;;;40.80;39.90;;;;;;5053804;28;20190;-86
2021/06/04 08:36:32;;;;;;;2.47;2.28;;;40.60;40.10;;;;;;5058604;28;20180;-87
2021/06/04 08:39:02;;;;;;;2.20;2.00;;;40.40;39.90;;;;;;5053719;28;20261;-86
2021/06/04 08:41:36;;;;;;;2.03;1.92;;;39.30;41.00;;;;;;5053699;28;20659;-86
2021/06/04 08:44:19;;;;;;;2.60;2.40;;;39.10;43.00;;;;;;5054317;28;20187;-85
2021/06/04 08:46:51;;;;;;;2.58;2.47;;;38.60;43.20;;;;;;5053461;28;20209;-86
2021/06/04 08:49:27;;;;;;;2.80;2.70;;;37.90;44.20;;;;;;5053831;28;20191;-86
2021/06/04 08:52:12;;;;;;;3.35;2.47;;;37.00;44.70;;;;;;5053563;28;20713;-85
2021/06/04 08:54:53;;;;;;;2.60;2.50;;;36.50;46.30;;;;;;5054264;28;20607;-85
2021/06/04 08:57:38;;;;;;;2.38;2.28;;;36.20;47.00;;;;;;5053978;28;20551;-86
2021/06/04 09:00:07;;;;;;;2.70;2.50;;;35.70;48.30;;;;;;5053983;28;20638;-85
2021/06/04 09:02:37;;;;;;;2.70;2.50;;;35.10;49.60;;;;;;5053575;28;20237;-86
2021/06/04 09:05:10;;;;;;;2.75;2.65;;;34.30;50.80;;;;;;5054889;28;20187;-85
2021/06/04 09:07:40;;;;;;;3.22;3.00;;;33.50;52.30;;;;;;5057718;28;20201;-87
2021/06/04 09:10:14;;;;;;;2.78;2.60;;;32.70;53.20;;;;;;5057522;28;20194;-85
2021/06/04 09:12:46;;;;;;;3.25;3.05;;;32.00;55.70;;;;;;5057680;28;20187;-86
2021/06/04 09:15:14;;;;;;;4.00;2.70;;;31.50;57.40;;;;;;5057839;28;20195;-87
2021/06/04 09:17:47;;;;;;;3.00;2.80;;;31.20;56.70;;;;;;5057705;28;20198;-86
2021/06/04 09:20:18;;;;;;;2.60;2.40;;;30.80;57.50;;;;;;5057515;28;20192;-85
2021/06/04 09:22:47;;;;;;;3.90;3.20;;;30.40;58.60;;;;;;5057433;28;20586;-86
2021/06/04 09:25:17;;;;;;;3.33;3.10;;;30.20;60.10;;;;;;5057563;28;20244;-86
2021/06/04 09:27:47;;;;;;;3.17;2.90;;;30.20;59.80;;;;;;5057453;28;20191;-85
2021/06/04 09:30:21;;;;;;;3.40;3.15;;;30.20;60.60;;;;;;5057501;28;20191;-87
2021/06/04 09:33:04;;;;;;;3.03;2.78;;;30.30;60.10;;;;;;5057875;28;20202;-86
2021/06/04 09:35:31;;;;;;;2.80;2.60;;;30.40;60.80;;;;;;5057562;28;20191;-86
2021/06/04 09:38:17;;;;;;;3.90;3.55;;;30.50;60.40;;;;;;5057086;28;20230;-87
2021/06/04 09:40:46;;;;;;;3.75;3.17;;;30.50;58.80;;;;;;5057170;28;20225;-87
2021/06/04 09:43:22;;;;;;;3.70;3.30;;;30.50;60.40;;;;;;5056985;28;20596;-88
2021/06/04 09:45:58;;;;;;;3.28;3.08;;;30.40;61.30;;;;;;5057378;28;20233;-87
2021/06/04 09:48:37;;;;;;;2.70;2.50;;;30.30;61.20;;;;;;5056738;28;20194;-87
2021/06/04 09:51:12;;;;;;;2.63;2.53;;;30.30;60.90;;;;;;5056982;28;20309;-86
2021/06/04 09:53:39;;;;;;;2.83;2.65;;;30.20;61.30;;;;;;5057302;28;20236;-86
2021/06/04 09:56:25;;;;;;;3.10;2.70;;;30.30;60.10;;;;;;5057277;28;20192;-87
2021/06/04 09:58:54;;;;;;;2.80;2.60;;;30.40;59.20;;;;;;5057878;28;20195;-87
2021/06/04 10:01:22;;;;;;;2.65;2.45;;;30.20;58.60;;;;;;5057546;28;20288;-85
2021/06/04 10:03:52;;;;;;;2.50;2.40;;;30.20;58.70;;;;;;5058830;28;20226;-86
2021/06/04 10:06:43;;;;;;;2.47;2.28;;;30.40;57.80;;;;;;5057271;28;20195;-86
2021/06/04 10:09:30;;;;;;;5.63;2.53;;;30.30;58.50;;;;;;5060568;28;20264;-87
2021/06/04 10:12:09;;;;;;;2.40;2.30;;;30.40;59.70;;;;;;5056970;28;20232;-85
2021/06/04 10:14:47;;;;;;;4.20;2.15;;;30.30;59.10;;;;;;5056805;28;20287;-86
2021/06/04 10:17:43;;;;;;;2.47;2.28;;;30.20;59.30;;;;;;5057395;28;20204;-86
2021/06/04 10:20:30;;;;;;;3.25;2.00;;;30.20;60.60;;;;;;5056720;28;20190;-87
2021/06/04 10:23:06;;;;;;;7.32;2.17;;;30.20;59.50;;;;;;5056601;28;20306;-85
2021/06/04 10:25:39;;;;;;;2.85;2.47;;;30.10;57.60;;;;;;5056393;28;20611;-87
2021/06/04 10:28:25;;;;;;;2.30;1.85;;;30.00;57.50;;;;;;5057368;28;20195;-88
2021/06/04 10:30:51;;;;;;;2.47;2.28;;;29.80;58.30;;;;;;5056557;28;20220;-87
2021/06/04 10:33:27;;;;;;;2.70;2.55;;;29.80;57.90;;;;;;5056622;28;20188;-88
2021/06/04 10:35:57;;;;;;;2.47;2.28;;;29.70;57.80;;;;;;5056522;28;20210;-88
2021/06/04 10:38:30;;;;;;;1.83;1.60;;;29.60;59.10;;;;;;5055998;28;20229;-89
2021/06/04 10:41:01;;;;;;;1.88;1.77;;;29.60;58.10;;;;;;5056045;28;20689;-89
2021/06/04 10:43:45;;;;;;;2.80;2.60;;;29.50;57.80;;;;;;5056515;28;20211;-88
2021/06/04 10:46:17;;;;;;;1.92;1.70;;;29.40;57.50;;;;;;5056130;28;20193;-87
2021/06/04 10:49:02;;;;;;;3.40;1.85;;;29.40;58.80;;;;;;5056085;28;20269;-84
2021/06/04 10:51:35;;;;;;;2.28;2.17;;;29.40;58.80;;;;;;5055642;28;20706;-87
2021/06/04 10:54:17;;;;;;;2.30;2.10;;;29.30;59.10;;;;;;5055806;28;20183;-88
2021/06/04 10:56:49;;;;;;;3.67;2.15;;;29.50;58.00;;;;;;5055907;28;20187;-85
2021/06/04 10:59:29;;;;;;;2.50;2.30;;;29.60;58.40;;;;;;5055730;28;20201;-87
2021/06/04 11:02:00;;;;;;;2.83;2.00;;;29.90;56.20;;;;;;5056030;28;20226;-88
2021/06/04 11:04:40;;;;;;;2.97;2.63;;;30.10;56.50;;;;;;5055634;28;20242;-89
2021/06/04 11:07:16;;;;;;;2.10;2.00;;;30.20;55.10;;;;;;5055663;28;20189;-90
2021/06/04 11:10:00;;;;;;;2.20;2.00;;;30.40;53.70;;;;;;5055807;28;20189;-87
2021/06/04 11:12:44;;;;;;;3.17;2.00;;;30.20;53.80;;;;;;5055597;28;20214;-88
2021/06/04 11:15:18;;;;;;;1.63;1.50;;;30.10;54.20;;;;;;5055911;28;20557;-88
2021/06/04 11:17:48;;;;;;;1.98;1.88;;;30.00;55.30;;;;;;5055207;28;20656;-89
2021/06/04 11:20:19;;;;;;;1.80;1.70;;;30.00;54.70;;;;;;5055262;28;20191;-88
2021/06/04 11:23:02;;;;;;;4.28;2.35;;;30.00;56.00;;;;;;5056068;28;20555;-87
2021/06/04 11:25:42;;;;;;;2.00;1.90;;;29.90;57.00;;;;;;5054703;28;20225;-82
2021/06/04 11:28:32;;;;;;;2.42;2.33;;;29.70;57.00;;;;;;5054056;28;20238;-83
2021/06/04 11:31:01;;;;;;;2.40;2.30;;;29.50;57.20;;;;;;5055082;28;20224;-83
2021/06/04 11:33:31;;;;;;;2.10;2.00;;;29.20;57.60;;;;;;5054311;28;20191;-83
2021/06/04 11:36:05;;;;;;;22.92;5.30;;;28.90;58.30;;;;;;5054286;28;20186;-81
2021/06/04 11:38:37;;;;;;;2.83;2.53;;;28.70;58.80;;;;;;5053404;28;20245;-82
2021/06/04 11:41:18;;;;;;;3.47;2.30;;;28.60;60.50;;;;;;5054163;28;20229;-82
2021/06/04 11:43:47;;;;;;;2.40;2.30;;;28.40;60.90;;;;;;5054052;28;20226;-82
2021/06/04 11:46:20;;;;;;;2.78;2.55;;;28.20;61.70;;;;;;5053920;28;20626;-82
2021/06/04 11:49:04;;;;;;;2.92;2.45;;;28.10;60.20;;;;;;5054502;28;20194;-82
2021/06/04 11:51:36;;;;;;;2.20;2.00;;;28.20;61.00;;;;;;5053304;28;20779;-82
2021/06/04 11:54:40;;;;;;;2.60;2.40;;;28.20;60.10;;;;;;5054182;28;20199;-82
2021/06/04 11:57:09;;;;;;;2.78;2.58;;;28.30;60.90;;;;;;5022267;28;20206;-81
2021/06/04 12:00:06;;;;;;;2.85;2.65;;;28.40;60.90;;;;;;5053261;28;20569;-81
2021/06/04 12:02:43;;;;;;;3.28;2.50;;;28.40;59.60;;;;;;5053369;28;20227;-80
2021/06/04 12:05:38;;;;;;;2.70;2.50;;;28.50;59.60;;;;;;5053208;28;20208;-82
2021/06/04 12:08:33;;;;;;;2.85;2.75;;;28.50;59.80;;;;;;5053025;28;20179;-80
2021/06/04 12:11:05;;;;;;;2.42;2.28;;;28.70;60.10;;;;;;5050811;28;20218;-81
2021/06/04 12:13:33;;;;;;;2.70;2.50;;;28.70;59.40;;;;;;5053278;28;20269;-79
2021/06/04 12:16:25;;;;;;;3.50;2.63;;;28.70;59.70;;;;;;5053615;28;20198;-81
2021/06/04 12:18:59;;;;;;;3.17;2.30;;;28.70;59.90;;;;;;5038896;28;20264;-81
2021/06/04 12:22:01;;;;;;;3.05;2.50;;;28.60;60.00;;;;;;5052876;28;20775;-82
2021/06/04 12:24:53;;;;;;;2.38;2.28;;;28.60;60.10;;;;;;5053406;28;20178;-82
2021/06/04 12:27:45;;;;;;;2.85;2.65;;;28.60;60.20;;;;;;5053402;28;20183;-82
2021/06/04 12:31:04;;;;;;;3.03;2.80;;;28.50;60.90;;;;;;5052914;28;20191;-82
2021/06/04 12:33:46;;;;;;;2.80;2.60;;;28.50;62.10;;;;;;5052994;28;20214;-82
2021/06/04 12:36:53;;;;;;;2.20;2.00;;;28.50;64.70;;;;;;5055012;28;20194;-82
2021/06/04 12:39:36;;;;;;;3.25;3.05;;;28.40;65.00;;;;;;5054076;28;20627;-91
2021/06/04 12:42:06;;;;;;;2.53;2.40;;;28.30;65.30;;;;;;5058930;28;20218;-90
2021/06/04 12:44:33;;;;;;;3.08;2.75;;;28.40;64.60;;;;;;5058667;28;20249;-93
2021/06/04 12:46:59;;;;;;;3.53;2.55;;;28.30;65.00;;;;;;5058060;28;20663;-83
2021/06/04 12:49:26;;;;;;;5.57;2.25;;;28.30;62.80;;;;;;5057918;28;20239;-83
2021/06/04 12:51:53;;;;;;;3.08;2.88;;;28.30;61.90;;;;;;5058004;28;20284;-85
2021/06/04 12:54:23;;;;;;;2.58;2.38;;;28.20;61.90;;;;;;5057962;28;20661;-91
2021/06/04 12:56:51;;;;;;;2.85;2.65;;;28.00;62.00;;;;;;5058522;28;20179;-91
2021/06/04 12:59:22;;;;;;;3.45;3.15;;;27.70;63.50;;;;;;5058999;28;20194;-90
2021/06/04 13:02:01;;;;;;;3.33;3.03;;;27.60;64.50;;;;;;5059078;28;20238;-89
2021/06/04 13:04:30;;;;;;;3.58;3.38;;;27.40;66.60;;;;;;5059488;28;20193;-89
2021/06/04 13:06:59;;;;;;;3.05;2.80;;;27.00;67.90;;;;;;5064930;28;20180;-85
2021/06/04 13:09:30;;;;;;;4.45;2.97;;;26.70;69.40;;;;;;5058374;28;20252;-83